CheckWX is a tool to help pilots better visualize weather data.  It is not intended as a substitute for an official pre-flight weather briefing.

12:19:27 UTC

FKKD METAR
Douala International Airport
Douala, Cameroon
Current

1 hour ago

FKKD 281100Z VRB03KT 9999 SCT016 FEW020CB 31/25 Q1011 RETS NOSIG
Observed
May-28 @ 11:00 UTC
Wind
  • Variable at 3 KTS
Visibility
10,000+ meters
Flight Rules
VFR
Cloud Levels
  • Scattered at 1,600' AGL
  • Few at 2,000' AGL
Temperature
31°C / 88°F
Dewpoint
25°C / 77°F
Humidity
70%
Altimeter
29.85" Hg
Pressure
1010.92 hPa
Previous

2 hours ago

FKKD 281000Z VRB03KT 9999 TS BKN016 FEW020CB 29/25 Q1012 BECMG NSW
Observed
May-28 @ 10:00 UTC
Wind
  • Variable at 3 KTS
Visibility
10,000+ meters
Flight Rules
MVFR
Conditions
Thunderstorm
Cloud Levels
  • Broken at 1,600' AGL
  • Few at 2,000' AGL
Temperature
29°C / 84°F
Dewpoint
25°C / 77°F
Humidity
79%
Altimeter
29.88" Hg
Pressure
1011.92 hPa
Previous

3 hours ago

FKKD 280900Z 09002KT 8000 TS BKN016 FEW020CB 27/25 Q1013 NOSIG
Observed
May-28 @ 09:00 UTC
Wind
  • 090° at 2 KTS
Visibility
7998 meters
Flight Rules
MVFR
Conditions
Thunderstorm
Cloud Levels
  • Broken at 1,600' AGL
  • Few at 2,000' AGL
Temperature
27°C / 81°F
Dewpoint
25°C / 77°F
Humidity
89%
Altimeter
29.91" Hg
Pressure
1012.92 hPa